createdAt,value
2023-02-12T00:01:38.462Z,5.91
2023-02-12T00:04:05.058Z,5.82
2023-02-12T00:06:31.824Z,5.86
2023-02-12T00:08:58.839Z,5.82
2023-02-12T00:11:30.015Z,5.83
2023-02-12T00:13:57.851Z,5.74
2023-02-12T00:16:27.128Z,5.72
2023-02-12T00:18:55.975Z,5.73
2023-02-12T00:21:23.421Z,5.87
2023-02-12T00:23:50.049Z,5.85
2023-02-12T00:26:20.092Z,5.85
2023-02-12T00:28:46.714Z,5.74
2023-02-12T00:31:19.819Z,5.61
2023-02-12T00:33:47.006Z,5.61
2023-02-12T00:36:20.054Z,5.65
2023-02-12T00:38:47.237Z,5.81
2023-02-12T00:41:14.035Z,5.85
2023-02-12T00:43:40.662Z,5.79
2023-02-12T00:46:07.369Z,5.75
2023-02-12T00:48:34.612Z,5.63
2023-02-12T00:51:01.273Z,5.60
2023-02-12T00:53:28.603Z,5.69
2023-02-12T00:55:56.091Z,5.65
2023-02-12T00:58:23.260Z,5.66
2023-02-12T01:00:50.044Z,5.81
2023-02-12T01:03:16.821Z,5.73
2023-02-12T01:05:43.704Z,5.68
2023-02-12T01:08:15.397Z,5.73
2023-02-12T01:10:43.461Z,5.59
2023-02-12T01:13:15.126Z,5.60
2023-02-12T01:15:42.857Z,5.54
2023-02-12T01:18:09.673Z,5.48
2023-02-12T01:20:36.413Z,5.46
2023-02-12T01:23:03.145Z,5.48
2023-02-12T01:25:29.734Z,5.48
2023-02-12T01:27:56.436Z,5.57
2023-02-12T01:30:24.307Z,5.71
2023-02-12T01:32:51.124Z,5.63
2023-02-12T01:35:17.714Z,5.70
2023-02-12T01:37:45.144Z,5.52
2023-02-12T01:40:16.021Z,5.61
2023-02-12T01:42:42.694Z,5.53
2023-02-12T01:45:15.117Z,5.59
2023-02-12T01:47:44.214Z,5.51
2023-02-12T01:50:19.690Z,5.41
2023-02-12T01:52:50.541Z,5.37
2023-02-12T01:55:19.159Z,5.38
2023-02-12T01:57:48.329Z,5.36
2023-02-12T02:00:21.189Z,5.45
2023-02-12T02:02:53.906Z,5.44
2023-02-12T02:05:33.455Z,5.48
2023-02-12T02:08:00.161Z,5.43
2023-02-12T02:10:26.832Z,5.40
2023-02-12T02:13:12.048Z,5.44
2023-02-12T02:15:41.808Z,5.54
2023-02-12T02:18:52.460Z,5.48
2023-02-12T02:21:32.701Z,5.43
2023-02-12T02:24:05.397Z,5.44
2023-02-12T02:26:55.024Z,5.37
2023-02-12T02:29:46.723Z,5.38
2023-02-12T02:32:27.088Z,5.52
2023-02-12T02:35:03.534Z,5.56
2023-02-12T02:37:51.452Z,5.55
2023-02-12T02:40:21.321Z,5.42
2023-02-12T02:43:04.805Z,5.41
2023-02-12T02:45:46.051Z,5.45
2023-02-12T02:48:17.656Z,5.50
2023-02-12T02:50:49.994Z,5.53
2023-02-12T02:53:26.652Z,5.63
2023-02-12T02:55:57.180Z,5.52
2023-02-12T02:58:31.367Z,5.39
2023-02-12T03:01:23.198Z,5.30
2023-02-12T03:03:56.713Z,5.30
2023-02-12T03:06:36.132Z,5.27
2023-02-12T03:09:19.149Z,5.43
2023-02-12T03:11:46.915Z,5.36
2023-02-12T03:14:17.036Z,5.36
2023-02-12T03:17:07.955Z,5.24
2023-02-12T03:19:51.444Z,5.23
2023-02-12T03:22:34.469Z,5.21
2023-02-12T03:25:09.621Z,5.16
2023-02-12T03:27:44.521Z,5.13
2023-02-12T03:30:11.902Z,5.09
2023-02-12T03:32:59.099Z,5.19
2023-02-12T03:35:33.368Z,5.24
2023-02-12T03:38:19.084Z,5.25
2023-02-12T03:41:07.633Z,5.32
2023-02-12T03:43:51.241Z,5.24
2023-02-12T03:46:25.368Z,5.20
2023-02-12T03:49:03.908Z,5.29
2023-02-12T03:51:36.816Z,5.23
2023-02-12T03:54:06.949Z,5.17
2023-02-12T03:56:50.328Z,5.17
2023-02-12T03:59:18.336Z,5.13
2023-02-12T04:01:45.177Z,5.08
2023-02-12T04:04:12.127Z,5.13
2023-02-12T04:06:39.821Z,5.20
2023-02-12T04:09:10.662Z,5.09
2023-02-12T04:11:46.634Z,5.05
2023-02-12T04:14:31.466Z,5.00
2023-02-12T04:17:06.353Z,5.00
2023-02-12T04:19:42.145Z,5.01
2023-02-12T04:22:35.052Z,5.04
2023-02-12T04:25:34.141Z,4.98
2023-02-12T04:28:22.549Z,5.00
2023-02-12T04:31:01.322Z,5.05
2023-02-12T04:33:35.900Z,5.15
2023-02-12T04:36:24.711Z,5.17
2023-02-12T04:38:57.336Z,5.16
2023-02-12T04:41:25.726Z,5.08
2023-02-12T04:43:52.341Z,5.11
2023-02-12T04:46:19.039Z,5.19
2023-02-12T04:48:55.445Z,5.18
2023-02-12T04:51:22.130Z,5.19
2023-02-12T04:53:49.138Z,5.11
2023-02-12T04:56:15.881Z,5.11
2023-02-12T04:58:43.032Z,5.07
2023-02-12T05:01:10.737Z,5.07
2023-02-12T05:03:37.852Z,5.08
2023-02-12T05:06:09.744Z,4.96
2023-02-12T05:08:36.415Z,4.98
2023-02-12T05:11:07.875Z,4.95
2023-02-12T05:13:34.944Z,4.90
2023-02-12T05:16:04.995Z,4.90
2023-02-12T05:18:32.373Z,4.88
2023-02-12T05:21:00.437Z,4.89
2023-02-12T05:23:28.465Z,4.88
2023-02-12T05:25:58.009Z,4.88
2023-02-12T05:28:24.751Z,4.84
2023-02-12T05:30:51.520Z,4.84
2023-02-12T05:33:18.114Z,4.83
2023-02-12T05:35:44.774Z,4.79
2023-02-12T05:38:11.387Z,4.75
2023-02-12T05:40:40.366Z,4.76
2023-02-12T05:43:07.628Z,4.75
2023-02-12T05:45:34.318Z,4.75
2023-02-12T05:48:00.949Z,4.75
2023-02-12T05:50:27.573Z,4.68
2023-02-12T05:52:54.133Z,4.69
2023-02-12T05:55:20.754Z,4.66
2023-02-12T05:57:47.458Z,4.70
2023-02-12T06:00:15.051Z,4.67
2023-02-12T06:02:41.751Z,4.67
2023-02-12T06:05:08.361Z,4.63
2023-02-12T06:07:35.088Z,4.62
2023-02-12T06:10:01.802Z,4.64
2023-02-12T06:12:28.450Z,4.64
2023-02-12T06:14:55.506Z,4.63
2023-02-12T06:17:22.094Z,4.65
2023-02-12T06:19:48.859Z,4.64
2023-02-12T06:22:15.418Z,4.67
2023-02-12T06:24:42.154Z,4.66
2023-02-12T06:27:08.734Z,4.65
2023-02-12T06:29:35.309Z,4.67
2023-02-12T06:32:02.026Z,4.71
2023-02-12T06:34:28.731Z,4.72
2023-02-12T06:36:55.344Z,4.78
2023-02-12T06:39:21.931Z,4.75
2023-02-12T06:41:48.517Z,4.76
2023-02-12T06:44:15.700Z,4.73
2023-02-12T06:46:42.456Z,4.77
2023-02-12T06:49:13.091Z,4.84
2023-02-12T06:51:41.510Z,4.79
2023-02-12T06:54:13.908Z,4.82
2023-02-12T06:56:40.416Z,4.79
2023-02-12T06:59:07.033Z,4.80
2023-02-12T07:01:33.622Z,4.80
2023-02-12T07:04:03.292Z,4.87
2023-02-12T07:06:31.817Z,4.87
2023-02-12T07:08:58.576Z,4.82
2023-02-12T07:11:29.444Z,4.85
2023-02-12T07:13:56.356Z,4.87
2023-02-12T07:16:24.715Z,4.88
2023-02-12T07:18:51.724Z,4.91
2023-02-12T07:21:19.249Z,4.94
2023-02-12T07:23:51.743Z,4.93
2023-02-12T07:26:19.445Z,4.94
2023-02-12T07:28:46.041Z,4.99
2023-02-12T07:31:15.402Z,5.02
2023-02-12T07:33:42.903Z,5.03
2023-02-12T07:36:12.543Z,5.06
2023-02-12T07:38:41.968Z,5.17
2023-02-12T07:41:21.194Z,5.27
2023-02-12T07:43:49.981Z,5.28
2023-02-12T07:46:38.449Z,5.31
2023-02-12T07:49:06.757Z,5.36
2023-02-12T07:51:35.595Z,5.37
2023-02-12T07:54:02.458Z,5.41
2023-02-12T07:56:32.706Z,5.45
2023-02-12T07:59:02.238Z,5.46
2023-02-12T08:01:31.608Z,5.50
2023-02-12T08:04:00.902Z,5.59
2023-02-12T08:06:30.797Z,5.64
2023-02-12T08:08:59.923Z,5.68
2023-02-12T08:11:28.391Z,5.74
2023-02-12T08:13:55.597Z,5.75
2023-02-12T08:16:24.794Z,5.76
2023-02-12T08:18:52.313Z,5.79
2023-02-12T08:21:21.689Z,5.79
2023-02-12T08:23:52.286Z,5.86
2023-02-12T08:26:20.618Z,5.88
2023-02-12T08:28:56.279Z,6.02
2023-02-12T08:31:28.592Z,6.00
2023-02-12T08:33:55.531Z,5.93
2023-02-12T08:36:27.897Z,5.99
2023-02-12T08:38:54.374Z,6.03
2023-02-12T08:41:26.022Z,6.13
2023-02-12T08:43:54.822Z,6.15
2023-02-12T08:46:25.007Z,6.17
2023-02-12T08:49:04.026Z,6.17
2023-02-12T08:51:34.243Z,6.18
2023-02-12T08:54:03.238Z,6.31
2023-02-12T08:56:31.814Z,6.31
2023-02-12T08:58:59.237Z,6.49
2023-02-12T09:01:28.708Z,6.50
2023-02-12T09:03:55.983Z,6.46
2023-02-12T09:06:24.328Z,6.57
2023-02-12T09:08:52.282Z,6.72
2023-02-12T09:11:24.409Z,6.68
2023-02-12T09:13:51.165Z,6.75
2023-02-12T09:16:17.789Z,6.73
2023-02-12T09:18:45.283Z,6.70
2023-02-12T09:21:14.645Z,6.84
2023-02-12T09:23:41.501Z,7.11
2023-02-12T09:26:10.845Z,7.19
2023-02-12T09:28:38.557Z,7.13
2023-02-12T09:31:07.300Z,7.03
2023-02-12T09:33:34.486Z,7.08
2023-02-12T09:36:06.370Z,7.09
2023-02-12T09:38:33.242Z,7.02
2023-02-12T09:41:32.012Z,6.97
2023-02-12T09:44:04.857Z,7.12
2023-02-12T09:46:43.819Z,7.01
2023-02-12T09:49:34.010Z,7.10
2023-02-12T09:52:00.814Z,7.31
2023-02-12T09:54:39.355Z,7.38
2023-02-12T09:57:17.204Z,7.39
2023-02-12T09:59:48.639Z,7.27
2023-02-12T10:02:20.587Z,7.14
2023-02-12T10:05:00.052Z,7.35
2023-02-12T10:07:44.428Z,7.38
2023-02-12T10:10:11.189Z,7.43
2023-02-12T10:13:04.039Z,7.68
2023-02-12T10:15:38.200Z,7.45
2023-02-12T10:18:07.858Z,7.68
2023-02-12T10:20:52.441Z,7.58
2023-02-12T10:23:48.287Z,7.40
2023-02-12T10:26:35.939Z,7.44
2023-02-12T10:29:20.259Z,7.44
2023-02-12T10:34:36.387Z,7.17
2023-02-12T10:37:26.900Z,7.10
2023-02-12T10:40:30.026Z,7.48
2023-02-12T10:42:58.016Z,7.52
2023-02-12T10:45:31.794Z,7.44
2023-02-12T10:48:21.165Z,7.29
2023-02-12T10:50:53.656Z,7.48
2023-02-12T10:53:44.736Z,7.56
2023-02-12T10:56:20.264Z,7.66
2023-02-12T10:58:49.986Z,7.70
2023-02-12T11:01:33.304Z,7.62
2023-02-12T11:04:19.076Z,7.67
2023-02-12T11:07:06.770Z,7.63
2023-02-12T11:09:46.141Z,7.71
2023-02-12T11:12:30.904Z,7.83
2023-02-12T11:15:00.631Z,7.96
2023-02-12T11:17:36.063Z,7.96
2023-02-12T11:20:10.205Z,7.99
2023-02-12T11:22:37.272Z,7.84
2023-02-12T11:25:16.083Z,7.50
2023-02-12T11:27:43.211Z,7.36
2023-02-12T11:30:20.287Z,7.27
2023-02-12T11:32:49.345Z,7.10
2023-02-12T11:35:28.602Z,7.13
2023-02-12T11:37:58.683Z,7.29
2023-02-12T11:40:31.340Z,7.26
2023-02-12T11:43:02.279Z,7.26
2023-02-12T11:45:34.110Z,7.29
2023-02-12T11:48:01.273Z,7.35
2023-02-12T11:50:35.296Z,7.27
2023-02-12T11:53:09.813Z,7.37
2023-02-12T11:55:40.081Z,7.35
2023-02-12T11:58:12.804Z,7.32
2023-02-12T12:01:02.442Z,7.62
2023-02-12T12:03:43.045Z,7.73
2023-02-12T12:06:25.839Z,7.63
2023-02-12T12:09:19.496Z,7.84
2023-02-12T12:12:20.145Z,7.95
2023-02-12T12:15:47.465Z,7.97
2023-02-12T12:18:55.265Z,8.17
2023-02-12T12:21:45.761Z,8.24
2023-02-12T12:24:20.701Z,8.03
2023-02-12T12:27:00.495Z,8.40
2023-02-12T12:29:41.794Z,8.43
2023-02-12T12:32:15.201Z,8.65
2023-02-12T12:34:42.040Z,8.51
2023-02-12T12:37:12.400Z,8.40
2023-02-12T12:39:57.873Z,8.34
2023-02-12T12:42:38.244Z,8.41
2023-02-12T12:45:29.719Z,8.42
2023-02-12T12:48:15.059Z,8.62
2023-02-12T12:50:53.556Z,8.57
2023-02-12T12:53:40.367Z,8.78
2023-02-12T12:56:15.407Z,8.70
2023-02-12T12:59:14.306Z,8.84
2023-02-12T13:02:11.354Z,9.21
2023-02-12T13:04:52.230Z,9.18
2023-02-12T13:07:38.194Z,9.64
2023-02-12T13:10:32.221Z,10.00
2023-02-12T13:13:34.227Z,9.70
2023-02-12T13:16:06.665Z,9.46
2023-02-12T13:19:01.495Z,9.22
2023-02-12T13:21:43.188Z,9.00
2023-02-12T13:24:29.979Z,8.62
2023-02-12T13:26:58.492Z,8.76
2023-02-12T13:29:43.370Z,8.48
2023-02-12T13:32:46.312Z,8.84
2023-02-12T13:35:22.521Z,8.66
2023-02-12T13:37:53.359Z,8.83
2023-02-12T13:40:25.613Z,8.65
2023-02-12T13:42:58.342Z,8.90
2023-02-12T13:45:30.447Z,8.92
2023-02-12T13:48:06.995Z,8.92
2023-02-12T13:51:05.082Z,8.66
2023-02-12T13:53:37.971Z,8.65
2023-02-12T13:56:23.320Z,8.75
2023-02-12T13:58:52.917Z,8.55
2023-02-12T14:01:45.058Z,8.54
2023-02-12T14:04:28.834Z,8.81
2023-02-12T14:07:01.497Z,8.91
2023-02-12T14:09:38.695Z,9.04
2023-02-12T14:12:09.810Z,8.82
2023-02-12T14:14:45.727Z,9.07
2023-02-12T14:17:33.547Z,9.12
2023-02-12T14:20:28.303Z,9.00
2023-02-12T14:23:21.359Z,8.99
2023-02-12T14:26:01.794Z,8.93
2023-02-12T14:28:58.666Z,8.90
2023-02-12T14:31:28.204Z,8.76
2023-02-12T14:34:07.702Z,8.75
2023-02-12T14:36:38.991Z,8.60
2023-02-12T14:39:20.994Z,8.43
2023-02-12T14:41:52.349Z,8.39
2023-02-12T14:44:23.287Z,8.44
2023-02-12T14:46:55.453Z,8.44
2023-02-12T14:49:28.709Z,8.50
2023-02-12T14:52:07.687Z,8.82
2023-02-12T14:54:37.652Z,8.73
2023-02-12T14:57:09.608Z,8.95
2023-02-12T14:59:42.894Z,8.84
2023-02-12T15:02:20.970Z,8.86
2023-02-12T15:04:48.502Z,8.75
2023-02-12T15:07:24.528Z,8.69
2023-02-12T15:10:10.734Z,8.48
2023-02-12T15:12:47.392Z,8.53
2023-02-12T15:15:30.896Z,8.41
2023-02-12T15:18:03.404Z,8.31
2023-02-12T15:20:35.413Z,8.21
2023-02-12T15:23:03.146Z,8.15
2023-02-12T15:25:33.596Z,8.22
2023-02-12T15:28:04.615Z,8.04
2023-02-12T15:30:36.741Z,8.04
2023-02-12T15:33:08.267Z,8.03
2023-02-12T15:35:38.190Z,8.03
2023-02-12T15:38:07.745Z,7.90
2023-02-12T15:40:35.089Z,7.91
2023-02-12T15:43:02.970Z,7.87
2023-02-12T15:45:32.422Z,7.84
2023-02-12T15:48:02.066Z,7.83
2023-02-12T15:50:30.823Z,7.80
2023-02-12T15:52:57.784Z,7.78
2023-02-12T15:55:27.439Z,7.79
2023-02-12T15:58:01.580Z,7.79
2023-02-12T16:00:41.959Z,7.77
2023-02-12T16:03:33.463Z,7.71
2023-02-12T16:06:14.026Z,7.76
2023-02-12T16:08:50.466Z,7.77
2023-02-12T16:11:21.427Z,7.78
2023-02-12T16:13:51.861Z,7.77
2023-02-12T16:16:23.450Z,7.79
2023-02-12T16:19:21.190Z,7.74
2023-02-12T16:22:14.474Z,7.63
2023-02-12T16:24:47.701Z,7.54
2023-02-12T16:27:21.167Z,7.63
2023-02-12T16:30:01.850Z,7.64
2023-02-12T16:32:38.785Z,7.64
2023-02-12T16:35:11.138Z,7.79
2023-02-12T16:37:37.641Z,7.69
2023-02-12T16:40:13.373Z,7.75
2023-02-12T16:42:49.024Z,7.62
2023-02-12T16:45:28.254Z,7.43
2023-02-12T16:48:00.638Z,7.37
2023-02-12T16:50:30.371Z,7.37
2023-02-12T16:53:06.272Z,7.26
2023-02-12T16:55:33.115Z,7.30
2023-02-12T16:58:00.777Z,7.32
2023-02-12T17:00:27.386Z,7.25
2023-02-12T17:02:57.621Z,7.19
2023-02-12T17:05:24.287Z,7.49
2023-02-12T17:07:51.092Z,7.48
2023-02-12T17:10:17.960Z,7.29
2023-02-12T17:12:48.517Z,7.21
2023-02-12T17:15:33.902Z,7.08
2023-02-12T17:18:00.482Z,7.06
2023-02-12T17:20:27.198Z,7.28
2023-02-12T17:22:57.326Z,7.25
2023-02-12T17:25:23.933Z,7.16
2023-02-12T17:27:50.590Z,7.12
2023-02-12T17:30:19.682Z,7.06
2023-02-12T17:32:46.312Z,6.98
2023-02-12T17:35:13.640Z,6.95
2023-02-12T17:37:40.274Z,6.96
2023-02-12T17:40:07.949Z,6.89
2023-02-12T17:42:34.546Z,6.88
2023-02-12T17:45:01.155Z,6.86
2023-02-12T17:47:27.764Z,6.82
2023-02-12T17:49:54.448Z,6.84
2023-02-12T17:52:21.159Z,6.80
2023-02-12T17:54:47.871Z,6.82
2023-02-12T17:57:14.989Z,6.82
2023-02-12T17:59:42.052Z,6.83
2023-02-12T18:02:11.148Z,6.81
2023-02-12T18:04:38.084Z,6.79
2023-02-12T18:07:05.406Z,6.76
2023-02-12T18:09:33.045Z,6.74
2023-02-12T18:11:59.778Z,6.74
2023-02-12T18:14:26.376Z,6.72
2023-02-12T18:16:53.217Z,6.71
2023-02-12T18:19:19.934Z,6.68
2023-02-12T18:21:46.626Z,6.66
2023-02-12T18:24:13.304Z,6.67
2023-02-12T18:26:40.021Z,6.65
2023-02-12T18:29:06.644Z,6.67
2023-02-12T18:31:33.703Z,6.66
2023-02-12T18:34:00.369Z,6.65
2023-02-12T18:36:26.964Z,6.67
2023-02-12T18:38:53.938Z,6.61
2023-02-12T18:41:26.506Z,6.63
2023-02-12T18:43:54.761Z,6.63
2023-02-12T18:46:24.355Z,6.62
2023-02-12T18:48:52.233Z,6.62
2023-02-12T18:51:22.318Z,6.65
2023-02-12T18:53:54.548Z,6.62
2023-02-12T18:56:21.613Z,6.61
2023-02-12T18:58:48.412Z,6.62
2023-02-12T19:01:20.100Z,6.65
2023-02-12T19:03:48.676Z,6.62
2023-02-12T19:06:15.814Z,6.65
2023-02-12T19:08:42.435Z,6.66
2023-02-12T19:11:10.788Z,6.60
2023-02-12T19:13:37.516Z,6.65
2023-02-12T19:16:12.709Z,6.65
2023-02-12T19:18:39.710Z,6.71
2023-02-12T19:21:11.217Z,6.69
2023-02-12T19:23:38.338Z,6.63
2023-02-12T19:26:07.106Z,6.69
2023-02-12T19:28:34.809Z,6.60
2023-02-12T19:31:18.596Z,6.61
2023-02-12T19:33:46.942Z,6.57
2023-02-12T19:36:17.102Z,6.54
2023-02-12T19:38:44.302Z,6.49
2023-02-12T19:41:14.639Z,6.45
2023-02-12T19:43:41.727Z,6.41
2023-02-12T19:46:12.095Z,6.46
2023-02-12T19:48:39.741Z,6.37
2023-02-12T19:51:07.153Z,6.38
2023-02-12T19:53:33.802Z,6.40
2023-02-12T19:56:02.652Z,6.38
2023-02-12T19:58:30.552Z,6.36
2023-02-12T20:00:58.279Z,6.39
2023-02-12T20:03:26.410Z,6.42
2023-02-12T20:06:05.275Z,6.46
2023-02-12T20:08:33.046Z,6.44
2023-02-12T20:10:59.613Z,6.40
2023-02-12T20:13:26.204Z,6.38
2023-02-12T20:15:52.893Z,6.39
2023-02-12T20:18:19.503Z,6.41
2023-02-12T20:20:46.966Z,6.43
2023-02-12T20:23:13.542Z,6.42
2023-02-12T20:25:44.764Z,6.46
2023-02-12T20:28:11.429Z,6.50
2023-02-12T20:30:42.719Z,6.47
2023-02-12T20:33:10.000Z,6.45
2023-02-12T20:35:37.270Z,6.46
2023-02-12T20:38:07.694Z,6.50
2023-02-12T20:40:34.330Z,6.54
2023-02-12T20:43:00.904Z,6.47
2023-02-12T20:45:28.097Z,6.48
2023-02-12T20:47:55.118Z,6.46
2023-02-12T20:50:21.737Z,6.49
2023-02-12T20:52:48.506Z,6.46
2023-02-12T20:55:15.152Z,6.47
2023-02-12T20:57:41.787Z,6.51
2023-02-12T21:00:08.880Z,6.60
2023-02-12T21:02:35.534Z,6.62
2023-02-12T21:05:02.144Z,6.53
2023-02-12T21:07:28.781Z,6.59
2023-02-12T21:09:55.442Z,6.71
2023-02-12T21:12:21.997Z,6.73
2023-02-12T21:14:48.594Z,6.71
2023-02-12T21:17:15.669Z,6.67
2023-02-12T21:19:42.273Z,6.68
2023-02-12T21:22:08.916Z,6.72
2023-02-12T21:24:35.794Z,6.78
2023-02-12T21:27:02.678Z,6.85
2023-02-12T21:29:33.189Z,6.87
2023-02-12T21:32:01.132Z,6.87
2023-02-12T21:34:28.028Z,6.81
2023-02-12T21:36:56.129Z,6.94
2023-02-12T21:39:28.171Z,6.86
2023-02-12T21:42:03.111Z,6.80
2023-02-12T21:44:31.879Z,6.94
2023-02-12T21:46:58.898Z,6.88
2023-02-12T21:49:27.633Z,6.86
2023-02-12T21:51:57.292Z,6.93
2023-02-12T21:54:24.329Z,6.91
2023-02-12T21:56:51.514Z,6.88
2023-02-12T21:59:18.721Z,6.80
2023-02-12T22:01:50.950Z,6.86
2023-02-12T22:04:21.181Z,6.91
2023-02-12T22:06:50.789Z,6.97
2023-02-12T22:09:19.726Z,7.00
2023-02-12T22:11:46.447Z,6.94
2023-02-12T22:14:16.004Z,6.89
2023-02-12T22:16:43.040Z,7.03
2023-02-12T22:19:09.945Z,6.85
2023-02-12T22:21:39.549Z,6.88
2023-02-12T22:24:08.596Z,6.86
2023-02-12T22:26:35.614Z,6.83
2023-02-12T22:29:05.978Z,6.88
2023-02-12T22:31:34.556Z,6.93
2023-02-12T22:34:05.457Z,6.90
2023-02-12T22:36:37.556Z,7.00
2023-02-12T22:39:04.949Z,7.02
2023-02-12T22:41:32.448Z,6.87
2023-02-12T22:44:00.607Z,6.98
2023-02-12T22:46:28.158Z,6.98
2023-02-12T22:48:54.759Z,7.01
2023-02-12T22:51:26.935Z,6.87
2023-02-12T22:53:54.853Z,6.88
2023-02-12T22:56:22.345Z,6.82
2023-02-12T22:58:49.274Z,6.76
2023-02-12T23:01:18.559Z,6.92
2023-02-12T23:03:45.919Z,7.06
2023-02-12T23:06:19.071Z,6.91
2023-02-12T23:08:53.349Z,6.80
2023-02-12T23:11:20.825Z,6.81
2023-02-12T23:13:47.692Z,6.93
2023-02-12T23:16:14.598Z,6.84
2023-02-12T23:18:41.249Z,6.83
2023-02-12T23:21:08.045Z,6.74
2023-02-12T23:23:34.672Z,6.88
2023-02-12T23:26:02.082Z,6.84
2023-02-12T23:28:29.620Z,6.89
2023-02-12T23:30:57.770Z,6.80
2023-02-12T23:33:24.769Z,6.75
2023-02-12T23:35:51.403Z,6.85
2023-02-12T23:38:18.106Z,6.82
2023-02-12T23:40:44.917Z,6.73
2023-02-12T23:43:11.535Z,6.75
2023-02-12T23:45:38.299Z,6.71
2023-02-12T23:48:05.022Z,6.60
2023-02-12T23:50:31.707Z,6.65
2023-02-12T23:52:59.008Z,6.77
2023-02-12T23:55:25.658Z,6.79
2023-02-12T23:57:52.385Z,6.69
